createdAt,value
2019-02-19T00:01:44.682Z,4.03
2019-02-19T00:06:48.874Z,4.13
2019-02-19T00:11:54.457Z,4.70
2019-02-19T00:16:58.652Z,4.43
2019-02-19T00:22:04.026Z,4.47
2019-02-19T00:27:08.182Z,4.60
2019-02-19T00:32:13.788Z,4.93
2019-02-19T00:37:17.973Z,4.53
2019-02-19T00:42:23.521Z,4.33
2019-02-19T00:47:27.713Z,4.67
2019-02-19T00:52:32.957Z,4.63
2019-02-19T00:57:37.169Z,4.57
2019-02-19T01:02:41.429Z,3.90
2019-02-19T01:07:46.598Z,4.07
2019-02-19T01:12:52.354Z,4.80
2019-02-19T01:17:56.532Z,4.50
2019-02-19T01:23:02.142Z,4.63
2019-02-19T01:28:06.335Z,4.60
2019-02-19T01:33:11.843Z,5.10
2019-02-19T01:38:16.011Z,4.70
2019-02-19T01:43:21.225Z,4.77
2019-02-19T01:48:25.406Z,4.20
2019-02-19T01:53:32.363Z,4.57
2019-02-19T01:58:36.568Z,4.33
2019-02-19T02:03:42.259Z,4.60
2019-02-19T02:08:46.442Z,4.33
2019-02-19T02:13:52.270Z,4.27
2019-02-19T02:18:56.473Z,4.37
2019-02-19T02:24:02.058Z,4.13
2019-02-19T02:29:06.259Z,4.67
2019-02-19T02:34:11.673Z,4.10
2019-02-19T02:39:15.864Z,4.33
2019-02-19T02:44:21.659Z,4.33
2019-02-19T02:49:25.819Z,4.50
2019-02-19T02:54:30.670Z,4.93
2019-02-19T02:59:35.836Z,4.77
2019-02-19T03:04:41.260Z,4.80
2019-02-19T03:09:45.705Z,4.27
2019-02-19T03:14:51.501Z,3.80
2019-02-19T03:19:56.731Z,4.97
2019-02-19T03:25:02.166Z,4.97
2019-02-19T03:30:07.277Z,4.87
2019-02-19T03:35:13.240Z,5.07
2019-02-19T03:40:17.641Z,4.60
2019-02-19T03:45:23.037Z,4.00
2019-02-19T03:50:27.215Z,4.67
2019-02-19T03:55:32.730Z,3.63
2019-02-19T04:00:36.930Z,5.40
2019-02-19T04:05:42.042Z,5.27
2019-02-19T04:10:46.236Z,4.30
2019-02-19T04:15:51.325Z,4.40
2019-02-19T04:20:55.497Z,4.33
2019-02-19T04:25:59.766Z,4.10
2019-02-19T04:31:03.984Z,4.20
2019-02-19T04:36:08.220Z,3.73
2019-02-19T04:41:12.430Z,4.57
2019-02-19T04:46:17.139Z,4.47
2019-02-19T04:51:21.317Z,4.70
2019-02-19T04:56:26.890Z,3.70
2019-02-19T05:01:31.078Z,3.73
2019-02-19T05:06:36.507Z,4.23
2019-02-19T05:11:40.813Z,4.37
2019-02-19T05:16:49.102Z,4.13
2019-02-19T05:21:53.286Z,3.90
2019-02-19T05:26:58.781Z,4.40
2019-02-19T05:32:02.968Z,4.37
2019-02-19T05:37:08.651Z,4.83
2019-02-19T05:42:12.883Z,4.67
2019-02-19T05:47:18.591Z,4.90
2019-02-19T05:52:22.800Z,4.57
2019-02-19T05:57:28.881Z,5.20
2019-02-19T06:02:33.068Z,4.60
2019-02-19T06:07:38.772Z,4.33
2019-02-19T06:12:42.966Z,4.53
2019-02-19T06:17:47.223Z,4.03
2019-02-19T06:28:07.223Z,5.07
2019-02-19T06:33:11.446Z,4.20
2019-02-19T06:38:17.241Z,4.23
2019-02-19T06:43:21.451Z,4.63
2019-02-19T06:48:27.261Z,5.07
2019-02-19T06:53:31.467Z,6.43
2019-02-19T06:58:37.278Z,5.27
2019-02-19T07:04:06.531Z,5.43
2019-02-19T07:09:14.711Z,5.53
2019-02-19T07:14:18.914Z,4.77
2019-02-19T07:19:24.434Z,4.60
2019-02-19T07:24:28.627Z,5.37
2019-02-19T07:29:33.793Z,5.83
2019-02-19T07:34:37.985Z,5.57
2019-02-19T07:39:42.924Z,6.63
2019-02-19T07:44:47.118Z,6.43
2019-02-19T07:49:53.036Z,7.23
2019-02-19T07:54:57.225Z,7.23
2019-02-19T08:00:02.866Z,7.50
2019-02-19T08:05:07.225Z,8.67
2019-02-19T08:10:12.433Z,8.13
2019-02-19T08:15:16.633Z,7.37
2019-02-19T08:20:21.491Z,6.63
2019-02-19T08:25:25.747Z,7.57
2019-02-19T08:30:30.594Z,8.20
2019-02-19T08:35:35.076Z,8.70
2019-02-19T08:40:39.408Z,8.38
2019-02-19T08:45:43.593Z,8.10
2019-02-19T08:50:48.735Z,8.07
2019-02-19T08:55:53.254Z,8.50
2019-02-19T09:00:58.447Z,8.08
2019-02-19T09:06:02.718Z,8.57
2019-02-19T09:11:08.035Z,8.40
2019-02-19T09:16:12.235Z,8.23
2019-02-19T09:21:17.131Z,8.48
2019-02-19T09:26:21.578Z,8.87
2019-02-19T09:31:25.962Z,9.75
2019-02-19T09:36:30.426Z,10.30
2019-02-19T09:41:34.654Z,9.05
2019-02-19T09:46:38.920Z,9.67
2019-02-19T09:51:43.422Z,9.80
2019-02-19T09:56:47.591Z,8.98
2019-02-19T10:01:53.020Z,8.27
2019-02-19T10:06:57.524Z,11.07
2019-02-19T10:12:01.841Z,8.93
2019-02-19T10:17:06.386Z,8.67
2019-02-19T10:22:11.990Z,10.00
2019-02-19T10:27:16.437Z,9.10
2019-02-19T10:32:22.067Z,8.50
2019-02-19T10:37:26.535Z,8.23
2019-02-19T10:42:31.093Z,8.37
2019-02-19T10:47:35.952Z,8.38
2019-02-19T10:52:41.891Z,8.03
2019-02-19T10:57:47.157Z,7.22
2019-02-19T11:02:53.853Z,7.92
2019-02-19T11:07:58.327Z,7.60
2019-02-19T11:13:03.051Z,6.72
2019-02-19T11:18:07.524Z,7.80
2019-02-19T11:23:13.235Z,6.80
2019-02-19T11:28:17.887Z,4.97
2019-02-19T11:33:23.586Z,5.20
2019-02-19T11:38:28.044Z,5.20
2019-02-19T11:43:33.541Z,5.40
2019-02-19T11:48:38.009Z,4.43
2019-02-19T11:53:42.954Z,4.40
2019-02-19T11:58:47.406Z,4.07
2019-02-19T12:03:52.234Z,5.10
2019-02-19T12:08:56.776Z,5.27
2019-02-19T12:14:02.165Z,3.37
2019-02-19T12:19:06.343Z,4.35
2019-02-19T12:24:11.762Z,4.25
2019-02-19T12:29:17.506Z,4.30
2019-02-19T12:34:24.308Z,3.67
2019-02-19T12:39:30.711Z,4.23
2019-02-19T12:44:36.226Z,4.57
2019-02-19T12:49:41.678Z,2.72
2019-02-19T12:54:46.859Z,4.97
2019-02-19T12:59:56.662Z,4.72
2019-02-19T13:04:57.809Z,4.93
2019-02-19T13:10:02.262Z,5.42
2019-02-19T13:15:08.531Z,6.00
2019-02-19T13:20:13.041Z,4.97
2019-02-19T13:25:18.613Z,6.17
2019-02-19T13:30:23.080Z,4.80
2019-02-19T13:35:27.801Z,5.25
2019-02-19T13:40:32.262Z,5.83
2019-02-19T13:45:36.526Z,5.93
2019-02-19T13:50:40.982Z,6.50
2019-02-19T13:55:48.843Z,6.27
2019-02-19T14:00:53.354Z,5.97
2019-02-19T14:05:57.572Z,5.92
2019-02-19T14:11:02.223Z,5.77
2019-02-19T14:16:14.124Z,6.30
2019-02-19T14:21:29.499Z,5.67
2019-02-19T14:26:45.102Z,5.00
2019-02-19T14:32:03.269Z,5.70
2019-02-19T14:37:29.327Z,4.93
2019-02-19T14:42:44.420Z,5.30
2019-02-19T14:48:06.855Z,6.40
2019-02-19T14:53:32.721Z,5.50
2019-02-19T14:59:03.254Z,5.53
2019-02-19T15:04:21.134Z,5.28
2019-02-19T15:09:53.569Z,4.73
2019-02-19T15:15:17.647Z,5.57
2019-02-19T15:20:39.965Z,5.35
2019-02-19T15:26:17.298Z,5.33
2019-02-19T15:31:55.668Z,5.30
2019-02-19T15:37:22.290Z,4.85
2019-02-19T15:42:44.662Z,5.43
2019-02-19T15:48:06.876Z,4.92
2019-02-19T15:53:31.130Z,4.13
2019-02-19T15:58:54.526Z,5.40
2019-02-19T16:04:07.791Z,4.00
2019-02-19T16:09:27.790Z,4.37
2019-02-19T16:14:46.287Z,4.10
2019-02-19T16:19:58.434Z,3.67
2019-02-19T16:25:28.264Z,3.67
2019-02-19T16:30:54.857Z,3.17
2019-02-19T16:36:07.833Z,3.77
2019-02-19T16:41:43.026Z,3.47
2019-02-19T16:47:06.595Z,3.10
2019-02-19T16:52:20.928Z,3.80
2019-02-19T16:57:43.249Z,2.83
2019-02-19T17:03:02.034Z,3.00
2019-02-19T17:08:24.678Z,4.50
2019-02-19T17:13:48.119Z,4.72
2019-02-19T17:19:10.463Z,6.37
2019-02-19T17:24:40.919Z,3.20
2019-02-19T17:29:54.581Z,3.87
2019-02-19T17:35:16.775Z,4.07
2019-02-19T17:40:28.661Z,3.10
2019-02-19T17:46:07.419Z,3.50
2019-02-19T17:51:37.066Z,3.10
2019-02-19T17:57:03.918Z,2.90
2019-02-19T18:02:12.614Z,2.37
2019-02-19T18:07:35.847Z,2.10
2019-02-19T18:13:02.375Z,2.47
2019-02-19T18:18:25.743Z,1.98
2019-02-19T18:23:29.933Z,2.02
2019-02-19T18:28:35.590Z,2.00
2019-02-19T18:33:39.771Z,2.07
2019-02-19T18:38:45.092Z,2.37
2019-02-19T18:43:49.357Z,2.03
2019-02-19T18:48:54.616Z,2.07
2019-02-19T18:53:59.155Z,2.37
2019-02-19T18:59:03.679Z,2.45
2019-02-19T19:04:07.861Z,2.07
2019-02-19T19:09:12.752Z,2.10
2019-02-19T19:14:17.085Z,2.10
2019-02-19T19:19:22.207Z,1.93
2019-02-19T19:24:26.996Z,2.60
2019-02-19T19:29:32.882Z,2.23
2019-02-19T19:34:37.146Z,2.30
2019-02-19T19:39:42.088Z,2.40
2019-02-19T19:44:46.270Z,2.40
2019-02-19T19:49:50.467Z,2.13
2019-02-19T19:54:54.655Z,2.50
2019-02-19T19:59:59.402Z,3.63
2019-02-19T20:05:05.282Z,2.30
2019-02-19T20:10:11.250Z,2.57
2019-02-19T20:15:16.156Z,2.47
2019-02-19T20:20:20.607Z,2.57
2019-02-19T20:25:24.793Z,2.90
2019-02-19T20:30:31.524Z,2.50
2019-02-19T20:35:36.058Z,2.70
2019-02-19T20:40:40.572Z,2.97
2019-02-19T20:45:45.070Z,2.17
2019-02-19T20:50:49.444Z,2.83
2019-02-19T20:55:53.604Z,2.30
2019-02-19T21:00:57.913Z,2.40
2019-02-19T21:06:02.776Z,3.20
2019-02-19T21:11:08.070Z,2.80
2019-02-19T21:16:12.518Z,2.60
2019-02-19T21:21:16.703Z,2.80
2019-02-19T21:26:22.017Z,2.63
2019-02-19T21:31:26.223Z,2.80
2019-02-19T21:36:31.866Z,3.00
2019-02-19T21:41:36.040Z,3.17
2019-02-19T21:46:41.278Z,3.40
2019-02-19T21:51:53.712Z,3.43
2019-02-19T21:56:51.610Z,3.07
2019-02-19T22:01:57.021Z,2.43
2019-02-19T22:07:01.185Z,2.77
2019-02-19T22:12:06.426Z,3.20
2019-02-19T22:17:10.617Z,3.20
2019-02-19T22:22:21.205Z,2.50
2019-02-19T22:27:25.382Z,3.00
2019-02-19T22:32:29.549Z,3.20
2019-02-19T22:37:33.697Z,3.33
2019-02-19T22:42:37.983Z,3.40
2019-02-19T22:47:42.147Z,2.60
2019-02-19T22:52:47.858Z,3.20
2019-02-19T22:57:52.185Z,3.40
2019-02-19T23:02:57.735Z,3.27
2019-02-19T23:08:01.911Z,3.07
2019-02-19T23:13:07.511Z,3.87
2019-02-19T23:18:11.657Z,3.33
2019-02-19T23:23:17.060Z,3.47
2019-02-19T23:28:21.239Z,3.37
2019-02-19T23:33:25.415Z,3.43
2019-02-19T23:38:29.652Z,3.20
2019-02-19T23:43:35.249Z,3.67
2019-02-19T23:48:40.469Z,3.47
2019-02-19T23:53:46.037Z,4.33
2019-02-19T23:58:50.218Z,4.13
